Time;durP1;ratioP1;P1;durP2;ratioP2;P2;SDS_P1;SDS_P2;PMS_P1;PMS_P2;Temp;Humidity;BMP_temperature;BMP_pressure;BME280_temperature;BME280_humidity;BME280_pressure;Samples;Min_cycle;Max_cycle;Signal;HPM_P1;HPM_P2
2022/08/20 00:01:26;;;;;;;8.65;7.85;;;18.10;99.90;;;;;;5003116;28;20049;-87
2022/08/20 00:03:51;;;;;;;9.57;8.70;;;18.20;99.90;;;;;;5014885;28;20023;-86
2022/08/20 00:06:20;;;;;;;10.45;9.18;;;18.20;99.90;;;;;;5014390;28;20054;-86
2022/08/20 00:08:46;;;;;;;9.82;8.23;;;18.20;99.90;;;;;;4984451;28;20030;-86
2022/08/20 00:11:16;;;;;;;9.02;8.15;;;18.20;99.90;;;;;;5006170;28;20042;-86
2022/08/20 00:13:45;;;;;;;9.38;8.38;;;18.20;99.90;;;;;;5010334;28;20512;-86
2022/08/20 00:16:12;;;;;;;10.85;9.85;;;18.20;99.90;;;;;;5006820;28;20021;-86
2022/08/20 00:18:40;;;;;;;11.00;9.90;;;18.20;99.90;;;;;;5021217;28;20052;-87
2022/08/20 00:21:14;;;;;;;9.65;8.75;;;18.20;99.90;;;;;;5039074;28;20048;-86
2022/08/20 00:23:42;;;;;;;10.85;9.85;;;18.20;99.90;;;;;;5020385;28;20041;-86
2022/08/20 00:26:09;;;;;;;10.27;9.32;;;18.20;99.90;;;;;;5037777;28;20273;-86
2022/08/20 00:28:35;;;;;;;11.25;10.25;;;18.20;99.90;;;;;;5019913;28;20060;-87
2022/08/20 00:31:04;;;;;;;10.27;9.32;;;18.20;99.90;;;;;;5033640;28;20026;-86
2022/08/20 00:33:30;;;;;;;10.30;9.20;;;18.20;99.90;;;;;;5009191;28;20293;-87
2022/08/20 00:35:56;;;;;;;10.70;9.70;;;18.10;99.90;;;;;;5022278;28;20056;-87
2022/08/20 00:38:23;;;;;;;10.73;9.73;;;18.10;99.90;;;;;;5038678;28;20104;-87
2022/08/20 00:40:56;;;;;;;11.98;10.77;;;18.10;99.90;;;;;;5022243;28;20022;-87
2022/08/20 00:43:27;;;;;;;12.88;11.35;;;18.10;99.90;;;;;;5033067;28;20013;-87
2022/08/20 00:45:55;;;;;;;12.43;11.15;;;18.10;99.90;;;;;;5046315;28;20025;-86
2022/08/20 00:48:23;;;;;;;11.45;10.10;;;18.10;99.90;;;;;;5038738;28;20025;-87
2022/08/20 00:50:49;;;;;;;11.80;9.95;;;18.10;99.90;;;;;;5022981;28;20058;-87
2022/08/20 00:53:16;;;;;;;15.60;14.00;;;18.10;99.90;;;;;;5020207;28;20040;-87
2022/08/20 00:55:41;;;;;;;12.32;11.07;;;18.10;99.90;;;;;;5020196;28;20026;-88
2022/08/20 00:58:08;;;;;;;12.55;11.35;;;18.10;99.90;;;;;;5016068;28;20133;-87
2022/08/20 01:00:45;;;;;;;14.18;12.77;;;18.10;99.90;;;;;;5013939;28;20032;-87
2022/08/20 01:03:13;;;;;;;15.68;12.43;;;18.10;99.90;;;;;;5034413;28;20048;-87
2022/08/20 01:05:43;;;;;;;13.13;11.82;;;18.00;99.90;;;;;;5013948;28;20035;-87
2022/08/20 01:08:09;;;;;;;13.90;12.50;;;18.00;99.90;;;;;;5003759;28;20022;-86
2022/08/20 01:10:39;;;;;;;16.30;14.60;;;18.10;99.90;;;;;;5017413;28;20030;-86
2022/08/20 01:13:09;;;;;;;14.13;12.73;;;18.10;99.90;;;;;;5016853;28;20053;-87
2022/08/20 01:15:39;;;;;;;14.50;12.95;;;18.10;99.90;;;;;;5016926;28;20100;-86
2022/08/20 01:18:09;;;;;;;14.27;12.88;;;18.10;99.90;;;;;;5017619;28;20018;-86
2022/08/20 01:20:41;;;;;;;16.05;14.48;;;18.00;99.90;;;;;;5017615;28;20367;-86
2022/08/20 01:23:31;;;;;;;12.93;11.63;;;18.10;99.90;;;;;;5017102;28;20025;-85
2022/08/20 01:26:40;;;;;;;15.52;14.02;;;18.00;99.90;;;;;;5019103;28;20042;-86
2022/08/20 01:29:19;;;;;;;17.27;14.52;;;17.90;99.90;;;;;;5031613;28;20071;-86
2022/08/20 01:31:45;;;;;;;16.48;14.77;;;17.90;99.90;;;;;;5008437;28;20026;-87
2022/08/20 01:34:14;;;;;;;13.93;12.52;;;17.90;99.90;;;;;;5008670;28;20017;-87
2022/08/20 01:36:42;;;;;;;14.85;13.25;;;17.90;99.90;;;;;;5033702;28;20065;-87
2022/08/20 01:39:11;;;;;;;16.23;14.52;;;17.90;99.90;;;;;;5018001;28;20022;-88
2022/08/20 01:42:13;;;;;;;16.48;14.45;;;17.90;99.90;;;;;;4999615;28;20084;-87
2022/08/20 01:44:41;;;;;;;15.88;14.18;;;17.90;99.90;;;;;;5017567;28;20077;-86
2022/08/20 01:47:20;;;;;;;14.85;13.23;;;17.90;99.90;;;;;;5017617;28;20076;-86
2022/08/20 01:49:50;;;;;;;16.48;14.75;;;17.90;99.90;;;;;;5012785;28;20033;-86
2022/08/20 01:52:50;;;;;;;15.15;13.55;;;17.90;99.90;;;;;;5018701;28;20033;-87
2022/08/20 01:55:17;;;;;;;15.43;13.75;;;17.90;99.90;;;;;;5012166;28;20112;-86
2022/08/20 01:57:43;;;;;;;15.13;13.40;;;17.90;99.90;;;;;;5034476;28;20018;-86
2022/08/20 02:00:13;;;;;;;16.75;14.85;;;17.80;99.90;;;;;;5011980;28;20034;-86
2022/08/20 02:02:42;;;;;;;17.50;15.65;;;17.80;99.90;;;;;;4998091;28;20026;-86
2022/08/20 02:05:08;;;;;;;18.13;16.20;;;17.80;99.90;;;;;;4998784;28;20026;-86
2022/08/20 02:07:36;;;;;;;18.13;15.52;;;17.80;99.90;;;;;;4999706;28;20028;-86
2022/08/20 02:10:05;;;;;;;17.30;15.50;;;17.80;99.90;;;;;;4982622;28;20037;-86
2022/08/20 02:12:31;;;;;;;16.38;14.77;;;17.80;99.90;;;;;;5017193;28;20041;-86
2022/08/20 02:14:57;;;;;;;17.67;15.82;;;17.80;99.90;;;;;;5001092;28;20025;-86
2022/08/20 02:17:25;;;;;;;25.92;17.95;;;17.70;99.90;;;;;;4999989;28;20049;-86
2022/08/20 02:19:59;;;;;;;21.30;16.63;;;17.70;99.90;;;;;;5017313;28;20025;-86
2022/08/20 02:22:46;;;;;;;17.52;15.60;;;17.60;99.90;;;;;;5015578;28;20014;-87
2022/08/20 02:25:13;;;;;;;17.50;15.70;;;17.60;99.90;;;;;;5021639;28;20489;-86
2022/08/20 02:27:42;;;;;;;23.88;17.95;;;17.60;99.90;;;;;;4998175;28;20113;-86
2022/08/20 02:30:14;;;;;;;18.73;16.35;;;17.60;99.90;;;;;;5016065;28;20029;-86
2022/08/20 02:32:40;;;;;;;17.27;15.48;;;17.60;99.90;;;;;;5027699;28;20108;-86
2022/08/20 02:35:09;;;;;;;23.85;18.40;;;17.60;99.90;;;;;;4999562;28;20432;-86
2022/08/20 02:37:36;;;;;;;20.58;18.42;;;17.60;99.90;;;;;;4999932;28;20029;-85
2022/08/20 02:40:06;;;;;;;16.80;15.00;;;17.60;99.90;;;;;;5000759;28;20146;-86
2022/08/20 02:42:33;;;;;;;20.83;17.05;;;17.60;99.90;;;;;;5018741;28;20104;-86
2022/08/20 02:44:58;;;;;;;19.02;16.73;;;17.60;99.90;;;;;;5000906;28;20026;-86
2022/08/20 02:47:26;;;;;;;18.48;16.40;;;17.60;99.90;;;;;;5029354;28;20037;-87
2022/08/20 02:49:53;;;;;;;18.02;15.40;;;17.60;99.90;;;;;;5015358;28;20034;-86
2022/08/20 02:52:19;;;;;;;19.50;17.15;;;17.50;99.90;;;;;;5018015;28;20026;-86
2022/08/20 02:54:45;;;;;;;20.05;16.17;;;17.50;99.90;;;;;;5035920;28;20026;-86
2022/08/20 02:57:15;;;;;;;20.20;17.92;;;17.60;99.90;;;;;;5018518;28;20086;-86
2022/08/20 02:59:44;;;;;;;19.58;17.42;;;17.60;99.90;;;;;;5035253;28;20010;-86
2022/08/20 03:02:10;;;;;;;18.90;16.40;;;17.60;99.90;;;;;;5018175;28;20026;-86
2022/08/20 03:04:37;;;;;;;17.73;15.93;;;17.60;99.90;;;;;;5037375;28;20078;-87
2022/08/20 03:07:04;;;;;;;22.33;17.52;;;17.60;99.90;;;;;;5032163;28;20028;-87
2022/08/20 03:09:30;;;;;;;20.33;16.35;;;17.60;99.90;;;;;;5014234;28;20089;-86
2022/08/20 03:11:55;;;;;;;19.23;17.15;;;17.60;99.90;;;;;;5021936;28;20022;-86
2022/08/20 03:14:21;;;;;;;21.77;18.52;;;17.60;99.90;;;;;;5006859;28;20037;-86
2022/08/20 03:16:47;;;;;;;19.15;17.15;;;17.60;99.90;;;;;;5003130;28;20037;-86
2022/08/20 03:19:13;;;;;;;21.85;18.45;;;17.60;99.90;;;;;;5020727;28;20030;-86
2022/08/20 03:21:38;;;;;;;18.73;16.83;;;17.60;99.90;;;;;;5020756;28;20121;-86
2022/08/20 03:24:04;;;;;;;20.92;17.17;;;17.60;99.90;;;;;;5002957;28;20133;-87
2022/08/20 03:26:30;;;;;;;21.05;18.73;;;17.50;99.90;;;;;;5000194;28;20087;-86
2022/08/20 03:28:56;;;;;;;19.48;17.38;;;17.50;99.90;;;;;;5032591;23;20506;-83
2022/08/20 03:31:21;;;;;;;20.77;18.67;;;17.50;99.90;;;;;;5056244;28;20044;-83
2022/08/20 03:33:47;;;;;;;21.13;17.90;;;17.40;99.90;;;;;;5056244;28;20136;-83
2022/08/20 03:36:13;;;;;;;18.92;17.00;;;17.40;99.90;;;;;;5043804;28;20087;-83
2022/08/20 03:38:39;;;;;;;17.95;16.15;;;17.50;99.90;;;;;;5041975;28;20104;-82
2022/08/20 03:41:04;;;;;;;19.95;17.45;;;17.40;99.90;;;;;;5042145;28;20029;-82
2022/08/20 03:43:31;;;;;;;21.13;16.65;;;17.40;99.90;;;;;;5044442;28;20037;-83
2022/08/20 03:45:56;;;;;;;18.48;16.50;;;17.40;99.90;;;;;;5046337;28;20059;-82
2022/08/20 03:48:22;;;;;;;19.60;17.60;;;17.40;99.90;;;;;;5044931;28;20045;-83
2022/08/20 03:50:50;;;;;;;19.27;15.75;;;17.40;99.90;;;;;;5045840;28;20066;-83
2022/08/20 03:53:17;;;;;;;19.27;16.92;;;17.40;99.90;;;;;;5046764;28;20056;-83
2022/08/20 03:55:46;;;;;;;19.55;17.20;;;17.40;99.90;;;;;;5046904;28;20033;-80
2022/08/20 03:58:13;;;;;;;21.67;19.27;;;17.40;99.90;;;;;;5047168;28;20041;-82
2022/08/20 04:00:46;;;;;;;19.40;17.33;;;17.40;99.90;;;;;;5044693;28;20033;-82
2022/08/20 04:03:12;;;;;;;20.67;18.48;;;17.40;99.90;;;;;;5034541;28;20021;-81
2022/08/20 04:05:39;;;;;;;17.95;16.02;;;17.30;99.90;;;;;;5041651;28;20030;-80
2022/08/20 04:08:13;;;;;;;21.17;17.67;;;17.40;99.90;;;;;;5023545;28;20026;-82
2022/08/20 04:10:39;;;;;;;20.52;17.00;;;17.40;99.90;;;;;;5025690;28;20052;-82
2022/08/20 04:13:06;;;;;;;19.83;16.05;;;17.40;99.90;;;;;;5023626;28;20041;-81
2022/08/20 04:15:33;;;;;;;22.23;19.88;;;17.30;99.90;;;;;;5042778;28;20509;-80
2022/08/20 04:17:59;;;;;;;22.25;18.10;;;17.40;99.90;;;;;;5043065;28;20072;-83
2022/08/20 04:20:25;;;;;;;18.65;16.67;;;17.40;99.90;;;;;;5045887;28;20072;-83
2022/08/20 04:22:56;;;;;;;17.55;15.45;;;17.40;99.90;;;;;;5044237;28;20036;-83
2022/08/20 04:25:22;;;;;;;17.27;15.23;;;17.40;99.90;;;;;;5042582;28;20034;-80
2022/08/20 04:27:51;;;;;;;16.80;15.02;;;17.40;99.90;;;;;;5042218;28;20041;-81
2022/08/20 04:30:21;;;;;;;16.85;15.05;;;17.40;99.90;;;;;;5029870;28;20136;-82
2022/08/20 04:32:47;;;;;;;18.48;16.48;;;17.40;99.90;;;;;;5037094;28;20055;-82
2022/08/20 04:35:14;;;;;;;16.65;14.77;;;17.40;99.90;;;;;;5040065;28;20018;-81
2022/08/20 04:37:41;;;;;;;19.60;16.75;;;17.40;99.90;;;;;;5037867;28;20033;-82
2022/08/20 04:42:55;;;;;;;16.83;14.93;;;17.50;99.90;;;;;;5044818;28;20097;-82
2022/08/20 04:45:21;;;;;;;19.90;17.25;;;17.50;99.90;;;;;;5044532;28;20081;-82
2022/08/20 04:47:48;;;;;;;20.85;18.48;;;17.50;99.90;;;;;;5045054;28;20418;-80
2022/08/20 04:50:14;;;;;;;21.27;18.13;;;17.50;99.90;;;;;;5042730;28;20057;-82
2022/08/20 04:52:40;;;;;;;19.25;16.52;;;17.50;99.90;;;;;;5042138;28;20030;-83
2022/08/20 04:55:07;;;;;;;17.13;15.30;;;17.50;99.90;;;;;;5046862;28;20048;-81
2022/08/20 04:57:36;;;;;;;17.08;15.38;;;17.50;99.90;;;;;;5044740;28;20040;-82
2022/08/20 05:00:13;;;;;;;18.98;16.75;;;17.50;99.90;;;;;;5044118;28;20013;-82
2022/08/20 05:02:38;;;;;;;18.33;15.68;;;17.50;99.90;;;;;;5039321;28;20033;-81
2022/08/20 05:05:07;;;;;;;18.60;16.65;;;17.40;99.90;;;;;;5044519;28;20399;-82
2022/08/20 05:07:39;;;;;;;17.48;15.60;;;17.50;99.90;;;;;;5046448;28;20112;-81
2022/08/20 05:10:06;;;;;;;17.65;15.02;;;17.50;99.90;;;;;;5050290;28;20075;-80
2022/08/20 05:12:32;;;;;;;17.48;14.77;;;17.50;99.90;;;;;;5052727;28;20041;-80
2022/08/20 05:14:58;;;;;;;17.58;15.13;;;17.50;99.90;;;;;;5053161;28;20052;-82
2022/08/20 05:17:23;;;;;;;17.63;15.82;;;17.50;99.90;;;;;;5045885;28;20037;-82
2022/08/20 05:19:51;;;;;;;17.30;15.50;;;17.60;99.90;;;;;;5046722;28;20037;-82
2022/08/20 05:22:17;;;;;;;17.58;14.57;;;17.60;99.90;;;;;;5042696;28;20021;-81
2022/08/20 05:24:43;;;;;;;18.33;14.45;;;17.60;99.90;;;;;;5045729;28;20025;-81
2022/08/20 05:27:09;;;;;;;16.75;14.93;;;17.60;99.90;;;;;;5045597;28;20472;-82
2022/08/20 05:29:35;;;;;;;18.33;16.42;;;17.60;99.90;;;;;;5044067;28;20029;-81
2022/08/20 05:32:01;;;;;;;20.33;15.30;;;17.60;99.90;;;;;;5023658;28;20526;-81
2022/08/20 05:34:27;;;;;;;17.95;16.05;;;17.60;99.90;;;;;;5005777;28;20036;-81
2022/08/20 05:36:53;;;;;;;14.98;13.18;;;17.60;99.90;;;;;;5033465;28;20024;-81
2022/08/20 05:39:21;;;;;;;17.45;15.40;;;17.70;99.90;;;;;;5032504;28;20052;-81
2022/08/20 05:41:50;;;;;;;17.73;15.93;;;17.70;99.90;;;;;;5049671;28;20111;-82
2022/08/20 05:44:16;;;;;;;14.18;12.70;;;17.80;99.90;;;;;;5045244;28;20033;-81
2022/08/20 05:46:43;;;;;;;18.40;14.52;;;17.80;99.90;;;;;;5036196;28;20025;-80
2022/08/20 05:49:20;;;;;;;14.30;12.75;;;17.90;99.90;;;;;;5016136;28;20512;-81
2022/08/20 05:51:47;;;;;;;14.32;12.82;;;17.90;99.90;;;;;;5032705;28;20030;-81
2022/08/20 05:54:13;;;;;;;13.73;12.38;;;18.00;99.90;;;;;;5024493;28;20029;-82
2022/08/20 05:56:40;;;;;;;15.02;13.52;;;18.10;99.90;;;;;;5030014;28;20041;-82
2022/08/20 05:59:07;;;;;;;17.10;14.00;;;18.10;99.90;;;;;;5046012;28;20089;-81
2022/08/20 06:01:36;;;;;;;13.00;11.70;;;18.20;99.90;;;;;;5037329;28;20104;-80
2022/08/20 06:06:46;;;;;;;14.43;12.93;;;18.20;99.90;;;;;;5045629;28;20048;-82
2022/08/20 06:09:11;;;;;;;13.40;12.00;;;18.30;99.90;;;;;;5044793;28;20025;-81
2022/08/20 06:11:37;;;;;;;15.15;13.55;;;18.30;99.90;;;;;;5043765;28;20021;-80
2022/08/20 06:14:03;;;;;;;14.32;12.82;;;18.40;99.90;;;;;;5024607;28;20077;-81
2022/08/20 06:16:29;;;;;;;14.52;12.32;;;18.40;99.90;;;;;;5040062;28;20130;-81
2022/08/20 06:18:55;;;;;;;13.48;11.82;;;18.50;99.90;;;;;;5045521;28;20028;-81
2022/08/20 06:21:20;;;;;;;10.10;9.10;;;18.50;99.90;;;;;;5048560;28;20033;-80
2022/08/20 06:23:46;;;;;;;15.07;10.75;;;18.60;99.90;;;;;;5045762;28;20040;-82
2022/08/20 06:26:12;;;;;;;11.02;9.90;;;18.70;99.90;;;;;;5045772;28;20029;-81
2022/08/20 06:28:38;;;;;;;10.43;9.43;;;18.80;99.90;;;;;;5048651;28;20037;-82
2022/08/20 06:31:03;;;;;;;10.25;9.25;;;18.90;99.90;;;;;;5045688;28;20033;-82
2022/08/20 06:33:29;;;;;;;12.32;11.10;;;19.00;99.90;;;;;;5025921;28;20026;-81
2022/08/20 06:35:55;;;;;;;14.68;12.82;;;19.10;99.90;;;;;;5024676;28;20024;-81
2022/08/20 06:38:21;;;;;;;15.48;11.63;;;19.10;99.90;;;;;;5024974;28;20061;-82
2022/08/20 06:40:46;;;;;;;13.43;12.02;;;19.10;99.90;;;;;;5007545;28;20026;-82
2022/08/20 06:43:12;;;;;;;10.85;9.85;;;19.10;99.90;;;;;;5006400;28;20026;-83
2022/08/20 06:45:39;;;;;;;12.02;10.75;;;19.10;99.90;;;;;;5025120;28;20042;-82
2022/08/20 06:48:10;;;;;;;12.45;10.38;;;19.10;99.90;;;;;;5041998;28;20017;-82
2022/08/20 06:50:43;;;;;;;13.45;11.43;;;19.10;99.90;;;;;;5044196;28;20026;-83
2022/08/20 06:53:11;;;;;;;14.00;11.00;;;19.10;99.90;;;;;;5046410;28;20102;-82
2022/08/20 06:55:39;;;;;;;11.27;10.07;;;19.10;99.90;;;;;;5044578;28;20017;-82
2022/08/20 06:58:07;;;;;;;10.20;9.20;;;19.10;99.90;;;;;;5045111;28;20028;-82
2022/08/20 07:00:35;;;;;;;10.68;9.68;;;19.20;99.90;;;;;;5044931;28;20025;-82
2022/08/20 07:03:02;;;;;;;14.43;11.40;;;19.20;99.90;;;;;;5015949;28;20093;-82
2022/08/20 07:05:29;;;;;;;12.32;10.68;;;19.30;99.90;;;;;;5026219;28;20060;-82
2022/08/20 07:07:55;;;;;;;10.20;9.20;;;19.20;99.90;;;;;;5027194;28;20040;-81
2022/08/20 07:10:23;;;;;;;10.25;8.88;;;19.20;99.90;;;;;;5035505;28;20014;-81
2022/08/20 07:12:50;;;;;;;12.52;11.25;;;19.10;99.90;;;;;;5025014;28;20100;-81
2022/08/20 07:15:18;;;;;;;9.63;8.70;;;19.10;99.90;;;;;;5032123;28;20014;-81
2022/08/20 07:17:56;;;;;;;8.80;7.90;;;19.00;99.90;;;;;;5008683;28;20034;-82
2022/08/20 07:20:22;;;;;;;10.00;9.10;;;19.00;99.90;;;;;;5028102;28;20033;-81
2022/08/20 07:22:48;;;;;;;11.00;8.73;;;19.00;99.90;;;;;;5044305;28;20065;-82
2022/08/20 07:25:17;;;;;;;11.45;10.30;;;19.00;99.90;;;;;;5025406;28;20037;-81
2022/08/20 07:27:43;;;;;;;9.07;8.13;;;19.10;99.90;;;;;;5042715;28;20026;-80
2022/08/20 07:32:58;;;;;;;10.27;9.02;;;19.20;99.90;;;;;;5026143;28;20095;-81
2022/08/20 07:35:24;;;;;;;9.50;8.50;;;19.20;99.90;;;;;;5048081;28;20045;-80
2022/08/20 07:37:50;;;;;;;9.15;7.88;;;19.20;99.90;;;;;;5025084;28;20030;-80
2022/08/20 07:40:28;;;;;;;11.30;9.77;;;19.20;99.90;;;;;;5029365;28;20030;-81
2022/08/20 07:42:59;;;;;;;9.70;8.75;;;19.30;99.90;;;;;;5031047;28;20010;-81
2022/08/20 07:45:26;;;;;;;9.52;8.45;;;19.20;99.90;;;;;;5010570;28;20049;-81
2022/08/20 07:47:52;;;;;;;11.23;9.18;;;19.20;99.90;;;;;;5025047;28;20049;-82
2022/08/20 07:50:21;;;;;;;8.73;7.82;;;19.20;99.90;;;;;;5025823;28;20034;-82
2022/08/20 07:52:51;;;;;;;7.38;6.65;;;19.20;99.90;;;;;;5010717;28;20006;-82
2022/08/20 07:55:17;;;;;;;8.50;7.60;;;19.30;99.90;;;;;;5023034;28;20014;-80
2022/08/20 07:57:45;;;;;;;14.20;8.40;;;19.20;99.90;;;;;;5048178;28;20030;-82
2022/08/20 08:00:12;;;;;;;14.15;8.70;;;19.30;99.90;;;;;;5030928;28;20022;-82
2022/08/20 08:02:38;;;;;;;7.20;6.50;;;19.30;99.90;;;;;;5040462;28;20030;-81
2022/08/20 08:05:05;;;;;;;8.93;8.13;;;19.40;99.90;;;;;;5048408;28;20056;-82
2022/08/20 08:07:32;;;;;;;7.57;6.05;;;19.50;99.90;;;;;;5047829;28;20345;-81
2022/08/20 08:10:01;;;;;;;8.75;7.65;;;19.60;99.90;;;;;;5049799;28;20044;-82
2022/08/20 08:12:37;;;;;;;8.90;8.00;;;19.70;99.90;;;;;;5036547;28;20025;-82
2022/08/20 08:15:05;;;;;;;8.20;6.95;;;19.70;99.90;;;;;;5010705;28;20114;-82
2022/08/20 08:17:32;;;;;;;7.80;6.97;;;19.80;99.90;;;;;;5028801;28;20084;-82
2022/08/20 08:19:59;;;;;;;8.32;7.50;;;19.90;99.90;;;;;;5014167;28;20041;-81
2022/08/20 08:22:24;;;;;;;8.00;6.88;;;19.90;99.90;;;;;;5029678;28;20568;-82
2022/08/20 08:24:50;;;;;;;7.95;7.05;;;20.00;99.90;;;;;;5028092;28;20034;-82
2022/08/20 08:27:17;;;;;;;8.43;7.60;;;20.00;99.90;;;;;;5011293;28;20021;-82
2022/08/20 08:29:44;;;;;;;11.82;8.30;;;20.00;99.90;;;;;;5043534;28;20030;-82
2022/08/20 08:32:10;;;;;;;7.72;7.03;;;19.90;99.90;;;;;;5047364;28;20165;-82
2022/08/20 08:34:36;;;;;;;7.65;6.93;;;19.80;99.90;;;;;;5030019;28;20017;-81
2022/08/20 08:37:04;;;;;;;8.32;7.60;;;19.70;99.90;;;;;;5047692;28;20040;-82
2022/08/20 08:39:31;;;;;;;7.53;6.82;;;19.60;99.90;;;;;;5023680;28;20053;-82
2022/08/20 08:41:59;;;;;;;8.73;7.10;;;19.60;99.90;;;;;;5027588;28;20043;-83
2022/08/20 08:44:29;;;;;;;8.02;7.25;;;19.50;99.90;;;;;;5028429;28;20124;-83
2022/08/20 08:47:00;;;;;;;8.38;7.35;;;19.50;99.90;;;;;;5028935;28;20269;-83
2022/08/20 08:49:30;;;;;;;10.45;7.75;;;19.40;99.90;;;;;;5029963;28;20029;-80
2022/08/20 08:52:07;;;;;;;9.25;7.97;;;19.40;99.90;;;;;;5027812;28;20044;-81
2022/08/20 08:54:34;;;;;;;8.68;7.68;;;19.30;99.90;;;;;;5027814;28;20022;-81
2022/08/20 08:57:00;;;;;;;8.70;7.38;;;19.20;99.90;;;;;;5010692;28;20030;-82
2022/08/20 08:59:29;;;;;;;11.40;8.32;;;19.20;99.90;;;;;;5028566;28;20018;-82
2022/08/20 09:01:58;;;;;;;14.75;8.07;;;19.10;99.90;;;;;;5012592;28;20018;-81
2022/08/20 09:04:43;;;;;;;11.60;8.38;;;19.10;99.90;;;;;;5037833;28;20030;-81
2022/08/20 09:07:12;;;;;;;8.82;7.95;;;19.20;99.90;;;;;;5013549;28;20037;-82
2022/08/20 09:09:42;;;;;;;9.50;8.32;;;19.20;99.90;;;;;;5027972;28;20030;-81
2022/08/20 09:12:17;;;;;;;9.68;7.90;;;19.20;99.90;;;;;;5027110;28;20040;-81
2022/08/20 09:14:47;;;;;;;9.23;7.82;;;19.20;99.90;;;;;;5027155;28;20022;-81
2022/08/20 09:17:18;;;;;;;7.78;7.07;;;19.20;99.90;;;;;;5027950;28;20072;-82
2022/08/20 09:19:44;;;;;;;10.63;9.20;;;19.30;99.90;;;;;;5039348;28;20037;-82
2022/08/20 09:22:13;;;;;;;8.65;7.85;;;19.20;99.90;;;;;;5047064;28;20104;-82
2022/08/20 09:24:40;;;;;;;8.68;7.53;;;19.10;99.90;;;;;;5047981;28;20079;-81
2022/08/20 09:27:08;;;;;;;9.68;8.68;;;19.10;99.90;;;;;;5048091;28;20037;-82
2022/08/20 09:29:34;;;;;;;9.98;8.98;;;19.00;99.90;;;;;;5072014;23;20033;-83
2022/08/20 09:32:13;;;;;;;10.10;9.10;;;19.00;99.90;;;;;;5053541;28;20029;-83
2022/08/20 09:34:42;;;;;;;9.98;8.98;;;19.00;99.90;;;;;;5073329;28;20029;-84
2022/08/20 09:37:08;;;;;;;10.98;9.90;;;19.00;99.90;;;;;;5072181;28;20017;-84
2022/08/20 09:39:34;;;;;;;10.38;9.15;;;19.00;99.90;;;;;;5072362;28;20047;-84
2022/08/20 09:42:12;;;;;;;10.65;9.20;;;18.90;99.90;;;;;;5072574;28;20143;-83
2022/08/20 09:44:38;;;;;;;8.43;7.63;;;19.00;99.90;;;;;;5072866;28;20081;-84
2022/08/20 09:47:04;;;;;;;15.82;12.63;;;19.00;99.90;;;;;;5055223;28;20025;-84
2022/08/20 09:49:30;;;;;;;11.82;10.73;;;19.10;99.90;;;;;;5073251;28;20052;-85
2022/08/20 09:51:57;;;;;;;11.52;10.43;;;19.00;99.90;;;;;;5056132;28;20064;-85
2022/08/20 09:54:26;;;;;;;10.00;9.10;;;19.10;99.90;;;;;;5060093;28;20108;-83
2022/08/20 09:56:52;;;;;;;10.93;9.77;;;19.00;99.90;;;;;;5077673;28;20005;-84
2022/08/20 09:59:18;;;;;;;10.82;9.73;;;19.00;99.90;;;;;;5074926;28;20025;-84
2022/08/20 10:01:43;;;;;;;8.68;7.88;;;19.00;99.90;;;;;;5072052;28;20025;-84
2022/08/20 10:04:09;;;;;;;10.02;9.13;;;19.10;99.90;;;;;;5061734;28;20086;-84
2022/08/20 10:06:40;;;;;;;8.15;7.45;;;19.10;99.90;;;;;;5043411;28;20064;-85
2022/08/20 10:09:08;;;;;;;7.07;6.38;;;19.20;99.90;;;;;;5044086;28;20036;-84
2022/08/20 10:11:33;;;;;;;6.47;5.88;;;19.30;99.90;;;;;;5061609;28;20035;-85
2022/08/20 10:13:59;;;;;;;6.20;5.70;;;19.40;99.90;;;;;;5046558;28;20059;-84
2022/08/20 10:16:25;;;;;;;9.55;8.50;;;19.50;99.90;;;;;;5063488;28;20029;-84
2022/08/20 10:18:51;;;;;;;7.20;6.50;;;19.60;99.90;;;;;;5063397;28;20032;-85
2022/08/20 10:21:17;;;;;;;6.47;5.88;;;19.70;99.90;;;;;;5041775;28;20081;-85
2022/08/20 10:23:43;;;;;;;6.10;5.55;;;19.70;99.90;;;;;;5059519;28;20044;-85
2022/08/20 10:26:10;;;;;;;5.35;4.93;;;19.80;99.90;;;;;;5040728;28;20021;-85
2022/08/20 10:28:36;;;;;;;5.53;5.03;;;19.90;99.90;;;;;;5049118;28;20036;-84
2022/08/20 10:31:05;;;;;;;6.90;5.88;;;20.00;99.90;;;;;;5055744;28;20075;-85
2022/08/20 10:33:31;;;;;;;8.15;7.43;;;20.10;99.90;;;;;;5066120;28;20021;-85
2022/08/20 10:35:57;;;;;;;8.05;7.25;;;20.10;99.90;;;;;;5051597;28;20071;-85
2022/08/20 10:38:22;;;;;;;9.95;8.95;;;20.10;99.90;;;;;;5067163;28;20048;-85
2022/08/20 10:40:48;;;;;;;9.77;8.90;;;20.10;99.90;;;;;;5052121;28;20033;-85
2022/08/20 10:43:13;;;;;;;8.90;7.93;;;20.00;99.90;;;;;;5061181;28;20029;-85
2022/08/20 10:45:39;;;;;;;13.02;8.27;;;19.90;99.90;;;;;;5050147;28;20017;-84
2022/08/20 10:48:06;;;;;;;11.00;9.25;;;19.90;99.90;;;;;;5052963;28;20021;-84
2022/08/20 10:50:32;;;;;;;9.43;8.52;;;19.80;99.90;;;;;;5066930;28;20076;-85
2022/08/20 10:52:58;;;;;;;9.10;8.20;;;19.80;99.90;;;;;;5043868;28;20418;-85
2022/08/20 10:55:24;;;;;;;11.48;9.23;;;19.70;99.90;;;;;;5060650;28;20117;-84
2022/08/20 10:57:50;;;;;;;9.07;8.10;;;19.70;99.90;;;;;;5043166;28;20032;-85
2022/08/20 11:00:17;;;;;;;9.55;8.65;;;19.80;99.90;;;;;;5042385;28;20036;-85
2022/08/20 11:02:43;;;;;;;9.75;8.82;;;19.80;99.90;;;;;;5058343;28;20029;-85
2022/08/20 11:05:08;;;;;;;10.38;9.38;;;19.80;99.90;;;;;;5058553;28;20033;-85
2022/08/20 11:07:37;;;;;;;8.68;7.88;;;19.70;99.90;;;;;;5041527;28;20037;-84
2022/08/20 11:10:05;;;;;;;6.35;5.85;;;19.70;99.90;;;;;;5058683;28;20025;-84
2022/08/20 11:12:31;;;;;;;11.82;10.10;;;19.80;99.90;;;;;;5041011;28;20033;-85
2022/08/20 11:14:57;;;;;;;16.63;14.32;;;19.40;99.90;;;;;;5040849;28;20028;-84
2022/08/20 11:17:29;;;;;;;15.68;14.07;;;18.80;99.90;;;;;;5039838;28;20064;-84
2022/08/20 11:19:56;;;;;;;14.00;12.30;;;18.60;99.90;;;;;;5058119;28;20147;-86
2022/08/20 11:22:22;;;;;;;13.27;11.95;;;18.60;99.90;;;;;;5058759;28;20028;-84
2022/08/20 11:24:48;;;;;;;16.85;15.10;;;18.60;99.90;;;;;;5058620;28;20017;-84
2022/08/20 11:27:51;;;;;;;14.07;12.65;;;18.50;99.90;;;;;;5063823;28;20051;-84
2022/08/20 11:30:30;;;;;;;11.85;10.68;;;18.70;99.90;;;;;;5043235;28;20386;-85
2022/08/20 11:32:58;;;;;;;10.57;9.68;;;19.00;99.90;;;;;;5065144;28;20025;-85
2022/08/20 11:35:25;;;;;;;9.23;8.43;;;19.30;99.90;;;;;;5070795;28;20078;-85
2022/08/20 11:37:52;;;;;;;9.98;8.00;;;19.50;99.90;;;;;;5061879;28;20096;-85
2022/08/20 11:40:18;;;;;;;8.35;7.65;;;19.70;99.90;;;;;;5060818;28;20028;-85
2022/08/20 11:42:46;;;;;;;7.60;6.95;;;19.90;99.90;;;;;;5066720;28;20112;-83
2022/08/20 11:45:12;;;;;;;7.47;6.78;;;20.20;99.90;;;;;;5043182;28;20033;-84
2022/08/20 11:48:12;;;;;;;9.27;8.48;;;20.50;99.90;;;;;;5068329;28;20029;-84
2022/08/20 11:50:38;;;;;;;8.18;7.47;;;20.70;99.90;;;;;;5066301;28;20041;-85
2022/08/20 11:54:08;;;;;;;7.50;6.80;;;20.90;99.90;;;;;;5060928;28;20035;-85
2022/08/20 11:56:33;;;;;;;6.30;5.80;;;21.00;99.90;;;;;;5035791;28;20055;-85
2022/08/20 11:58:59;;;;;;;7.68;7.00;;;21.20;99.90;;;;;;5059543;28;20395;-84
2022/08/20 12:01:25;;;;;;;6.75;6.13;;;21.30;99.90;;;;;;5041299;28;20498;-85
2022/08/20 12:03:50;;;;;;;9.95;9.05;;;21.40;99.90;;;;;;5058990;28;20107;-85
2022/08/20 12:06:16;;;;;;;10.10;9.10;;;21.30;99.90;;;;;;5058834;28;20025;-84
2022/08/20 12:08:42;;;;;;;8.13;7.40;;;21.20;99.90;;;;;;5041473;28;20438;-84
2022/08/20 12:11:07;;;;;;;8.02;7.25;;;21.30;99.90;;;;;;5060097;28;20033;-84
2022/08/20 12:13:35;;;;;;;7.43;6.60;;;21.40;99.90;;;;;;5064148;28;20029;-85
2022/08/20 12:16:02;;;;;;;7.60;7.00;;;21.50;99.90;;;;;;5045026;28;20063;-85
2022/08/20 12:18:27;;;;;;;8.15;7.45;;;21.60;99.90;;;;;;5043378;28;20021;-84
2022/08/20 12:20:53;;;;;;;6.97;6.38;;;21.60;99.90;;;;;;5058938;28;20017;-85
2022/08/20 12:23:20;;;;;;;7.18;6.57;;;21.70;99.90;;;;;;5058954;28;20025;-85
2022/08/20 12:25:45;;;;;;;6.38;5.88;;;21.70;99.90;;;;;;5057863;28;20052;-85
2022/08/20 12:28:12;;;;;;;7.38;6.78;;;21.60;99.90;;;;;;5026583;28;20029;-85
2022/08/20 12:30:38;;;;;;;6.38;5.88;;;21.50;99.90;;;;;;5038295;28;20033;-84
2022/08/20 12:33:04;;;;;;;7.00;6.30;;;21.40;99.90;;;;;;5038551;28;20427;-84
2022/08/20 12:35:30;;;;;;;5.57;5.15;;;21.40;99.90;;;;;;5020834;28;20068;-85
2022/08/20 12:37:56;;;;;;;6.32;5.82;;;21.60;99.90;;;;;;5037286;28;20429;-84
2022/08/20 12:40:25;;;;;;;5.13;4.72;;;21.90;99.90;;;;;;5037987;28;20036;-84
2022/08/20 12:42:51;;;;;;;4.95;4.55;;;22.10;99.90;;;;;;5019965;28;20396;-83
2022/08/20 12:45:17;;;;;;;5.10;4.70;;;22.50;99.90;;;;;;5036727;28;20021;-84
2022/08/20 12:47:45;;;;;;;4.78;4.47;;;22.90;99.90;;;;;;5043085;28;20052;-84
2022/08/20 12:50:14;;;;;;;4.50;4.10;;;23.20;99.90;;;;;;5040985;28;20085;-83